METAR Data
IDs: Format: Raw Decoded Include TAF

Data at: 1608 UTC 24 Aug 2019

PADU 241556Z 00000KT 7SM -RA BKN035 BKN065 BKN080 11/08 A2992 RMK AO2 RAB55 SLP134 P0000 T01060083
PADU 241456Z 31004KT 10SM SCT033 BKN065 11/07 A2991 RMK AO2 SLP133 T01060072 51006
PADU 241356Z 32003KT 10SM FEW029 SCT036 OVC060 11/08 A2991 RMK AO2 SLP132 T01110083
PADU 241256Z AUTO 22004KT 10SM FEW017 SCT050 OVC070 12/09 A2990 RMK AO2 SLP130 T01170089
PADU 241205Z AUTO 36008KT 10SM SCT026 BKN039 OVC065 12/09 A2990 RMK AO2
PADU 241156Z AUTO 01010KT 10SM FEW012 BKN028 OVC060 12/09 A2990 RMK AO2 SLP128 60000 70004 T01170094 10122 20117 52005
PADU 241145Z AUTO 35010KT 10SM FEW021 SCT027 OVC060 12/09 A2990 RMK AO2
PADU 241110Z AUTO 35008KT 10SM BKN021 OVC060 12/09 A2989 RMK AO2
PADU 241056Z AUTO 36008KT 10SM FEW021 OVC060 12/09 A2989 RMK AO2 RAB04E22 SLP125 P0000 T01170094
PADU 241003Z AUTO 36012KT 8SM SCT023 OVC050 12/09 A2989 RMK AO2
PADU 240956Z AUTO 01009KT 7SM BKN025 OVC050 12/10 A2989 RMK AO2 SLP125 T01170100
PADU 240856Z AUTO 36008KT 10SM BKN027 OVC033 12/09 A2988 RMK AO2 SLP122 T01220094 401500117 51004
PADU 240831Z AUTO 35010KT 10SM BKN031 OVC055 12/09 A2988 RMK AO2
PADU 240756Z AUTO 01009KT 10SM BKN029 BKN035 OVC055 12/09 A2988 RMK AO2 SLP121 T01220089
PADU 240656Z AUTO 36008KT 10SM FEW033 BKN080 12/09 A2987 RMK AO2 SLP118 T01220089
PADU 240556Z AUTO 02006KT 10SM OVC060 12/09 A2986 RMK AO2 SLP115 60004 T01220094 10128 20117 53008
PADU 240507Z AUTO 35009KT 10SM FEW023 BKN055 OVC075 12/10 A2984 RMK AO2
PADU 240456Z 34010KT 10SM FEW014 BKN023 BKN055 12/10 A2984 RMK AO2 SLP109 T01220100
PADU 240356Z 35007G20KT 10SM FEW005 BKN023 BKN039 12/10 A2984 RMK AO2 RAE08 SLP109 P0000 T01220100
PADU 240321Z 04008KT 8SM SCT009 BKN024 12/10 A2984 RMK AO2 RAE08 P0000
PADU 240256Z 01009KT 6SM -RA BR SCT005 BKN014 OVC025 12/09 A2983 RMK AO2 SLP106 P0003 60004 T01170094 51008
PADU 240248Z 36010KT 4SM -RA BR FEW005 BKN010 BKN015 12/10 A2983 RMK AO2 P0003
PADU 240156Z 35010KT 5SM -RA BR FEW005 BKN008 OVC025 12/11 A2983 RMK AO2 RAE10B28 SLP104 P0000 T01170106
PADU 240056Z 35008KT 5SM -RA BR BKN008 BKN030 OVC060 12/11 A2982 RMK AO2 RAB07 SLP102 VIS SE-S 3 P0001 T01220106
PADU 240024Z 34011KT 3SM -RA BR BKN010 BKN030 OVC060 12/11 A2982 RMK AO2 RAB07 P0000
PADU 232356Z 35011KT 10SM FEW004 SCT010 BKN027 OVC130 13/11 A2981 RMK AO2 SLP099 T01280111 10150 20128 53001
PADU 232256Z VRB06KT 10SM FEW008 BKN018 BKN030 OVC130 14/11 A2981 RMK AO2 SLP097 T01390111
PADU 232156Z VRB03KT 10SM FEW006 FEW010 BKN030 OVC130 14/12 A2981 RMK AO2 SLP097 T01440117
PADU 232056Z 09004KT 10SM FEW017 BKN030 BKN060 OVC130 14/11 A2981 RMK AO2 SLP097 T01390111 53004
PADU 231956Z 00000KT 10SM FEW017 BKN025 BKN060 OVC130 13/11 A2980 RMK AO2 SLP095 T01330111
PADU 231856Z 00000KT 10SM FEW016 BKN025 OVC060 13/11 A2979 RMK AO2 SLP093 T01280111
PADU 231756Z 00000KT 10SM FEW016 BKN025 OVC060 13/11 A2980 RMK AO2 SLP094 T01280111 10128 20117 52002
PADU 231656Z 00000KT 10SM FEW015 BKN025 OVC060 12/11 A2980 RMK AO2 SLP093 T01170111
PADU 231626Z 00000KT 10SM FEW015 BKN027 OVC060 12/11 A2979 RMK AO2
PADU 231556Z 00000KT 10SM FEW014 OVC055 12/11 A2979 RMK AO2 SLP092 T01170106
PADU 231456Z 00000KT 10SM FEW017 BKN055 12/11 A2979 RMK AO2 SLP092 T01220106 53001
PADU 231356Z 00000KT 10SM BKN042 OVC055 13/11 A2979 RMK AO2 SLP091 T01280106
PADU 231256Z AUTO 00000KT 10SM OVC055 13/11 A2978 RMK AO2 SLP089 T01280111
PADU 231156Z AUTO 01004KT 10SM FEW012 SCT019 OVC060 13/11 A2979 RMK AO2 SLP090 60001 70012 T01280111 10133 20122 58003
PADU 231056Z AUTO 00000KT 10SM FEW008 BKN015 OVC046 13/12 A2979 RMK AO2 SLP092 T01280117
PADU 231028Z AUTO 03004KT 10SM FEW008 BKN015 OVC045 13/12 A2980 RMK AO2
PADU 231019Z AUTO 00000KT 10SM BKN013 OVC020 13/12 A2979 RMK AO2
PADU 231003Z AUTO 00000KT 10SM FEW009 BKN021 OVC043 12/11 A2979 RMK AO2
PADU 230956Z AUTO 00000KT 10SM SCT009 SCT021 OVC043 13/12 A2980 RMK AO2 SLP093 T01280117
PADU 230953Z AUTO 33003KT 10SM SCT009 SCT018 OVC043 13/12 A2980 RMK AO2
PADU 230939Z AUTO 00000KT 9SM SCT009 BKN016 OVC043 13/12 A2979 RMK AO2
PADU 230915Z AUTO 00000KT 10SM SCT016 OVC043 13/12 A2980 RMK AO2
PADU 230856Z AUTO 00000KT 10SM OVC016 13/12 A2980 RMK AO2 SLP094 60001 T01280117 401330117 51006
PADU 230818Z AUTO 00000KT 10SM FEW009 BKN018 OVC044 13/12 A2979 RMK AO2
PADU 230809Z AUTO 16003KT 10SM BKN018 OVC044 13/12 A2979 RMK AO2
PADU 230756Z AUTO 00000KT 10SM SCT016 BKN033 OVC044 13/12 A2979 RMK AO2 SLP091 T01280117
PADU 230732Z AUTO 20003KT 10SM FEW005 SCT014 OVC033 13/12 A2979 RMK AO2
PADU 230715Z AUTO 00000KT 10SM SCT005 BKN014 OVC033 13/12 A2979 RMK AO2
PADU 230656Z AUTO 22003KT 10SM SCT014 OVC024 13/12 A2979 RMK AO2 RAB21E50 SLP091 P0001 T01280117
PADU 230556Z AUTO 36004KT 6SM BR SCT007 OVC020 13/12 A2978 RMK AO2 SLP088 T01280117 10133 20122 53001
PADU 230553Z AUTO 35006KT 7SM SCT007 OVC020 13/12 A2978 RMK AO2
PADU 230546Z AUTO 35004KT 8SM BKN007 OVC020 13/12 A2978 RMK AO2
PADU 230522Z AUTO 00000KT 5SM BR BKN005 OVC022 13/12 A2978 RMK AO2 CIG 004V008
PADU 230456Z 10003KT 4SM BR BKN003 OVC008 13/12 A2978 RMK AO2 SLP086 T01280122
PADU 230453Z 11004KT 4SM BR BKN003 BKN008 OVC012 13/12 A2978 RMK AO2
PADU 230426Z 00000KT 2SM BR BKN003 OVC010 13/13 A2978 RMK AO2 VIS NW 1